createdAt,value
2022-08-18T00:02:48.103Z,19.60
2022-08-18T00:05:38.852Z,19.45
2022-08-18T00:08:10.144Z,19.17
2022-08-18T00:13:53.057Z,20.13
2022-08-18T00:16:25.609Z,20.30
2022-08-18T00:18:52.494Z,18.42
2022-08-18T00:21:19.839Z,18.15
2022-08-18T00:23:49.739Z,18.38
2022-08-18T00:32:39.022Z,20.48
2022-08-18T00:35:39.873Z,19.13
2022-08-18T00:38:24.729Z,21.65
2022-08-18T00:41:46.803Z,19.48
2022-08-18T00:44:17.388Z,18.08
2022-08-18T00:47:03.803Z,20.10
2022-08-18T00:49:39.435Z,19.83
2022-08-18T00:52:10.247Z,21.10
2022-08-18T00:54:55.819Z,23.02
2022-08-18T00:57:54.289Z,22.27
2022-08-18T01:00:49.610Z,21.52
2022-08-18T01:03:29.886Z,21.63
2022-08-18T01:06:05.984Z,20.98
2022-08-18T01:09:08.189Z,22.88
2022-08-18T01:11:39.552Z,21.90
2022-08-18T01:14:19.756Z,21.80
2022-08-18T01:17:14.257Z,23.92
2022-08-18T01:20:03.198Z,23.05
2022-08-18T01:23:12.481Z,22.48
2022-08-18T01:29:05.575Z,20.90
2022-08-18T01:34:51.509Z,20.77
2022-08-18T01:37:21.577Z,20.40
2022-08-18T01:41:11.213Z,19.75
2022-08-18T01:42:39.151Z,18.88
2022-08-18T01:45:08.204Z,19.75
2022-08-18T01:47:47.869Z,20.20
2022-08-18T01:50:15.965Z,19.13
2022-08-18T01:52:43.222Z,19.42
2022-08-18T01:55:10.484Z,18.88
2022-08-18T01:57:45.509Z,20.00
2022-08-18T02:00:17.773Z,21.02
2022-08-18T02:02:45.005Z,21.30
2022-08-18T02:05:32.369Z,20.65
2022-08-18T02:07:59.586Z,21.67
2022-08-18T02:10:27.692Z,22.10
2022-08-18T02:12:55.029Z,19.77
2022-08-18T02:15:22.059Z,19.38
2022-08-18T02:17:49.704Z,20.35
2022-08-18T02:20:19.443Z,19.42
2022-08-18T02:22:49.008Z,19.63
2022-08-18T02:25:16.744Z,20.65
2022-08-18T02:27:44.930Z,21.33
2022-08-18T02:30:14.942Z,21.48
2022-08-18T02:32:42.438Z,19.98
2022-08-18T02:35:11.798Z,20.38
2022-08-18T02:37:42.269Z,19.38
2022-08-18T02:40:14.794Z,20.40
2022-08-18T02:42:42.487Z,20.83
2022-08-18T02:45:09.812Z,22.48
2022-08-18T02:47:36.833Z,24.00
2022-08-18T02:50:04.583Z,21.00
2022-08-18T02:52:34.765Z,22.40
2022-08-18T02:55:04.307Z,21.77
2022-08-18T02:57:32.219Z,21.40
2022-08-18T03:00:00.375Z,20.80
2022-08-18T03:02:27.744Z,21.55
2022-08-18T03:04:54.749Z,20.67
2022-08-18T03:07:21.457Z,22.30
2022-08-18T03:09:48.120Z,25.10
2022-08-18T03:12:14.799Z,22.63
2022-08-18T03:14:41.448Z,22.30
2022-08-18T03:17:09.868Z,21.92
2022-08-18T03:19:36.818Z,22.17
2022-08-18T03:22:04.599Z,23.00
2022-08-18T03:24:51.288Z,22.60
2022-08-18T03:27:17.977Z,23.95
2022-08-18T03:29:44.798Z,23.73
2022-08-18T03:38:32.723Z,22.23
2022-08-18T03:41:06.696Z,22.08
2022-08-18T03:43:50.835Z,23.70
2022-08-18T03:46:20.967Z,22.55
2022-08-18T03:48:49.831Z,22.58
2022-08-18T03:51:25.816Z,22.08
2022-08-18T03:53:55.593Z,21.52
2022-08-18T03:56:33.259Z,23.92
2022-08-18T03:59:14.062Z,23.80
2022-08-18T04:01:46.255Z,22.58
2022-08-18T04:04:24.673Z,24.58
2022-08-18T04:07:00.682Z,22.30
2022-08-18T04:09:36.537Z,22.92
2022-08-18T04:12:16.963Z,22.83
2022-08-18T04:14:55.778Z,23.33
2022-08-18T04:17:32.030Z,25.85
2022-08-18T04:20:08.975Z,25.13
2022-08-18T04:22:44.845Z,27.58
2022-08-18T04:25:16.353Z,27.45
2022-08-18T04:27:58.380Z,27.20
2022-08-18T04:30:35.245Z,28.45
2022-08-18T04:33:30.310Z,27.90
2022-08-18T04:39:02.738Z,25.95
2022-08-18T04:41:57.642Z,25.55
2022-08-18T04:47:26.486Z,23.52
2022-08-18T04:53:30.664Z,23.80
2022-08-18T04:56:54.137Z,24.13
2022-08-18T05:03:02.308Z,23.33
2022-08-18T05:05:41.936Z,25.08
2022-08-18T05:08:08.479Z,24.65
2022-08-18T05:10:35.615Z,25.13
2022-08-18T05:13:02.140Z,23.48
2022-08-18T05:15:28.854Z,20.80
2022-08-18T05:17:57.082Z,21.58
2022-08-18T05:20:25.473Z,15.45
2022-08-18T05:22:52.748Z,16.08
2022-08-18T05:25:19.461Z,14.98
2022-08-18T05:27:46.187Z,14.88
2022-08-18T05:30:14.635Z,14.63
2022-08-18T05:32:48.662Z,13.82
2022-08-18T05:36:37.984Z,14.15
2022-08-18T05:39:55.104Z,13.43
2022-08-18T05:42:25.835Z,14.10
2022-08-18T05:44:54.844Z,17.45
2022-08-18T05:47:32.721Z,14.55
2022-08-18T05:50:26.363Z,14.43
2022-08-18T05:53:01.599Z,13.60
2022-08-18T05:56:05.433Z,11.88
2022-08-18T05:58:44.322Z,12.85
2022-08-18T06:01:17.064Z,12.32
2022-08-18T06:03:55.877Z,13.20
2022-08-18T06:06:29.660Z,13.27
2022-08-18T06:09:11.017Z,12.05
2022-08-18T06:11:37.846Z,11.32
2022-08-18T06:14:05.204Z,12.07
2022-08-18T06:16:50.591Z,12.77
2022-08-18T06:19:29.441Z,11.40
2022-08-18T06:22:15.277Z,15.95
2022-08-18T06:24:50.654Z,12.13
2022-08-18T06:27:17.118Z,12.65
2022-08-18T06:30:08.409Z,13.93
2022-08-18T06:32:57.626Z,13.27
2022-08-18T06:35:37.710Z,11.98
2022-08-18T06:38:38.083Z,13.65
2022-08-18T06:41:40.567Z,12.07
2022-08-18T06:44:17.502Z,12.25
2022-08-18T06:47:29.052Z,13.20
2022-08-18T06:50:06.197Z,12.05
2022-08-18T06:52:36.085Z,12.07
2022-08-18T06:55:13.981Z,10.68
2022-08-18T06:57:58.025Z,11.32
2022-08-18T07:00:31.424Z,15.82
2022-08-18T07:03:12.932Z,12.18
2022-08-18T07:06:02.488Z,11.93
2022-08-18T07:08:37.917Z,10.55
2022-08-18T07:11:34.207Z,10.13
2022-08-18T07:14:22.204Z,11.10
2022-08-18T07:17:05.113Z,11.35
2022-08-18T07:19:32.556Z,11.05
2022-08-18T07:22:05.154Z,10.90
2022-08-18T07:24:41.377Z,14.55
2022-08-18T07:27:15.519Z,11.48
2022-08-18T07:30:07.749Z,10.60
2022-08-18T07:32:44.879Z,12.02
2022-08-18T07:37:46.773Z,12.20
2022-08-18T07:40:26.149Z,11.20
2022-08-18T07:43:05.500Z,10.45
2022-08-18T07:45:42.430Z,10.27
2022-08-18T07:48:37.486Z,11.85
2022-08-18T07:51:43.052Z,11.10
2022-08-18T07:54:47.740Z,11.55
2022-08-18T07:57:24.193Z,12.48
2022-08-18T07:59:59.357Z,9.88
2022-08-18T08:02:38.810Z,13.13
2022-08-18T08:05:42.623Z,11.02
2022-08-18T08:08:17.822Z,10.23
2022-08-18T08:11:09.702Z,11.13
2022-08-18T08:13:57.774Z,12.98
2022-08-18T08:16:42.129Z,9.98
2022-08-18T08:19:49.357Z,12.43
2022-08-18T08:22:38.991Z,9.88
2022-08-18T08:25:45.291Z,10.07
2022-08-18T08:28:41.970Z,15.23
2022-08-18T08:31:38.204Z,11.75
2022-08-18T08:34:07.753Z,10.73
2022-08-18T08:36:39.108Z,10.40
2022-08-18T08:39:12.537Z,10.00
2022-08-18T08:42:00.411Z,9.57
2022-08-18T08:45:00.136Z,9.82
2022-08-18T08:47:30.258Z,9.30
2022-08-18T08:50:02.688Z,9.20
2022-08-18T08:52:44.236Z,9.57
2022-08-18T08:55:21.481Z,11.77
2022-08-18T08:58:08.292Z,9.13
2022-08-18T09:00:37.159Z,10.75
2022-08-18T09:03:36.332Z,8.70
2022-08-18T09:06:18.257Z,10.63
2022-08-18T09:09:12.983Z,9.20
2022-08-18T09:11:56.484Z,8.38
2022-08-18T09:14:31.921Z,9.32
2022-08-18T09:17:20.230Z,8.40
2022-08-18T09:20:09.096Z,9.00
2022-08-18T09:23:08.803Z,9.32
2022-08-18T09:25:38.359Z,8.88
2022-08-18T09:28:20.034Z,9.70
2022-08-18T09:31:01.803Z,9.20
2022-08-18T09:33:35.004Z,10.15
2022-08-18T09:39:11.443Z,10.43
2022-08-18T09:42:00.322Z,9.00
2022-08-18T09:44:48.354Z,8.65
2022-08-18T09:47:21.808Z,8.73
2022-08-18T09:49:56.954Z,10.43
2022-08-18T09:52:24.198Z,9.98
2022-08-18T09:55:07.598Z,9.38
2022-08-18T09:57:41.355Z,11.63
2022-08-18T10:00:33.516Z,9.80
2022-08-18T10:03:01.302Z,9.27
2022-08-18T10:05:31.175Z,7.95
2022-08-18T10:08:03.964Z,8.43
2022-08-18T10:11:00.976Z,8.32
2022-08-18T10:14:18.302Z,11.85
2022-08-18T10:20:27.123Z,9.82
2022-08-18T10:22:54.641Z,11.05
2022-08-18T10:25:47.371Z,7.53
2022-08-18T10:28:53.520Z,7.95
2022-08-18T10:31:24.063Z,8.82
2022-08-18T10:34:17.211Z,8.05
2022-08-18T10:36:59.103Z,25.05
2022-08-18T10:39:50.166Z,8.45
2022-08-18T10:42:41.033Z,9.15
2022-08-18T10:45:31.257Z,11.52
2022-08-18T10:48:16.718Z,8.48
2022-08-18T10:50:52.651Z,8.10
2022-08-18T10:53:55.950Z,7.20
2022-08-18T10:56:28.650Z,6.95
2022-08-18T10:59:28.846Z,9.30
2022-08-18T11:02:34.699Z,8.75
2022-08-18T11:05:10.109Z,7.93
2022-08-18T11:07:39.630Z,6.68
2022-08-18T11:11:06.636Z,6.13
2022-08-18T11:13:47.623Z,7.15
2022-08-18T11:16:33.536Z,7.35
2022-08-18T11:19:10.738Z,7.32
2022-08-18T11:21:42.363Z,8.90
2022-08-18T11:24:13.414Z,6.10
2022-08-18T11:26:58.656Z,8.73
2022-08-18T11:29:39.195Z,8.00
2022-08-18T11:32:15.361Z,6.95
2022-08-18T11:34:53.288Z,7.57
2022-08-18T11:39:47.787Z,6.40
2022-08-18T11:42:25.051Z,6.20
2022-08-18T11:44:55.116Z,6.07
2022-08-18T11:47:23.633Z,6.07
2022-08-18T11:50:08.388Z,7.90
2022-08-18T11:52:53.474Z,7.13
2022-08-18T11:55:31.839Z,6.15
2022-08-18T11:58:00.088Z,5.25
2022-08-18T12:00:43.192Z,5.40
2022-08-18T12:03:16.641Z,8.02
2022-08-18T12:05:54.069Z,6.35
2022-08-18T12:11:31.484Z,6.18
2022-08-18T12:14:31.945Z,5.28
2022-08-18T12:16:55.529Z,7.13
2022-08-18T12:19:24.337Z,7.03
2022-08-18T12:21:53.407Z,5.03
2022-08-18T12:24:36.687Z,6.35
2022-08-18T12:27:21.055Z,8.63
2022-08-18T12:29:49.433Z,6.30
2022-08-18T12:32:17.823Z,5.93
2022-08-18T12:35:09.492Z,5.78
2022-08-18T12:40:26.434Z,6.78
2022-08-18T12:42:53.547Z,7.65
2022-08-18T12:45:23.259Z,7.15
2022-08-18T12:47:51.218Z,6.22
2022-08-18T12:50:19.677Z,7.45
2022-08-18T12:52:47.054Z,6.32
2022-08-18T12:55:21.984Z,6.45
2022-08-18T12:57:51.960Z,8.20
2022-08-18T13:00:27.846Z,7.60
2022-08-18T13:02:56.825Z,9.13
2022-08-18T13:05:26.211Z,6.93
2022-08-18T13:07:58.588Z,7.15
2022-08-18T13:10:44.755Z,7.95
2022-08-18T13:13:12.572Z,7.15
2022-08-18T13:15:39.154Z,7.70
2022-08-18T13:18:14.571Z,7.03
2022-08-18T13:20:45.092Z,8.57
2022-08-18T13:23:12.080Z,14.52
2022-08-18T13:25:39.926Z,7.22
2022-08-18T13:28:06.758Z,7.55
2022-08-18T13:30:35.589Z,7.43
2022-08-18T13:33:06.071Z,8.60
2022-08-18T13:35:52.112Z,7.28
2022-08-18T13:40:33.827Z,7.45
2022-08-18T13:43:02.463Z,7.13
2022-08-18T13:45:35.877Z,6.70
2022-08-18T13:48:05.549Z,6.93
2022-08-18T13:50:32.164Z,6.75
2022-08-18T13:53:01.285Z,6.90
2022-08-18T13:55:29.159Z,6.10
2022-08-18T13:57:56.269Z,7.43
2022-08-18T14:00:29.604Z,7.60
2022-08-18T14:02:59.039Z,7.18
2022-08-18T14:05:36.661Z,6.82
2022-08-18T14:08:19.587Z,8.45
2022-08-18T14:10:53.463Z,6.35
2022-08-18T14:13:24.733Z,7.63
2022-08-18T14:15:54.931Z,6.65
2022-08-18T14:18:29.220Z,7.10
2022-08-18T14:21:16.622Z,6.55
2022-08-18T14:24:01.752Z,6.10
2022-08-18T14:26:50.271Z,7.93
2022-08-18T14:29:46.086Z,6.40
2022-08-18T14:32:06.722Z,8.57
2022-08-18T14:34:33.349Z,7.53
2022-08-18T14:37:00.000Z,8.05
2022-08-18T14:39:27.644Z,6.40
2022-08-18T14:41:56.144Z,6.10
2022-08-18T14:44:24.349Z,9.02
2022-08-18T14:46:54.481Z,12.00
2022-08-18T14:49:28.709Z,8.02
2022-08-18T14:52:00.924Z,6.90
2022-08-18T14:54:30.009Z,9.27
2022-08-18T14:57:02.569Z,10.05
2022-08-18T14:59:30.956Z,7.40
2022-08-18T15:02:05.463Z,7.13
2022-08-18T15:04:39.033Z,9.82
2022-08-18T15:07:23.807Z,6.10
2022-08-18T15:09:50.775Z,7.20
2022-08-18T15:12:37.826Z,7.65
2022-08-18T15:15:08.610Z,6.50
2022-08-18T15:17:38.294Z,7.10
2022-08-18T15:20:06.875Z,7.63
2022-08-18T15:23:02.973Z,7.65
2022-08-18T15:25:44.818Z,7.97
2022-08-18T15:28:21.029Z,5.80
2022-08-18T15:30:51.780Z,6.50
2022-08-18T15:33:23.769Z,7.57
2022-08-18T15:35:52.035Z,8.75
2022-08-18T15:41:44.184Z,6.28
2022-08-18T15:44:13.658Z,6.43
2022-08-18T15:46:40.410Z,6.20
2022-08-18T15:49:11.316Z,5.57
2022-08-18T15:51:42.748Z,6.72
2022-08-18T15:54:12.510Z,6.65
2022-08-18T15:56:39.800Z,6.50
2022-08-18T15:59:10.457Z,7.82
2022-08-18T16:01:41.863Z,6.35
2022-08-18T16:06:56.243Z,6.35
2022-08-18T16:09:22.913Z,6.55
2022-08-18T16:11:50.057Z,6.13
2022-08-18T16:14:17.070Z,5.95
2022-08-18T16:16:43.791Z,10.80
2022-08-18T16:19:10.428Z,8.02
2022-08-18T16:21:40.186Z,8.93
2022-08-18T16:24:08.201Z,6.88
2022-08-18T16:26:34.780Z,5.45
2022-08-18T16:29:02.050Z,5.80
2022-08-18T16:31:29.517Z,6.75
2022-08-18T16:33:57.279Z,6.75
2022-08-18T16:36:27.761Z,6.63
2022-08-18T16:38:58.208Z,10.48
2022-08-18T16:41:26.580Z,6.28
2022-08-18T16:43:53.191Z,7.25
2022-08-18T16:46:24.683Z,9.25
2022-08-18T16:48:51.632Z,7.32
2022-08-18T16:51:23.168Z,7.32
2022-08-18T16:53:52.259Z,6.97
2022-08-18T16:56:25.749Z,6.85
2022-08-18T16:59:11.429Z,8.38
2022-08-18T17:01:56.615Z,10.52
2022-08-18T17:04:29.537Z,14.77
2022-08-18T17:06:57.264Z,7.53
2022-08-18T17:09:24.561Z,7.80
2022-08-18T17:11:52.472Z,7.38
2022-08-18T17:14:22.206Z,6.95
2022-08-18T17:16:54.409Z,6.68
2022-08-18T17:19:26.970Z,7.72
2022-08-18T17:21:54.491Z,5.90
2022-08-18T17:24:31.368Z,8.75
2022-08-18T17:27:11.828Z,6.70
2022-08-18T17:29:48.335Z,7.43
2022-08-18T17:35:38.868Z,7.63
2022-08-18T17:38:27.539Z,9.57
2022-08-18T17:42:37.318Z,7.63
2022-08-18T17:45:21.775Z,9.57
2022-08-18T17:47:51.952Z,9.00
2022-08-18T17:50:57.291Z,7.50
2022-08-18T17:53:25.107Z,7.53
2022-08-18T17:56:14.145Z,6.78
2022-08-18T17:58:46.372Z,8.82
2022-08-18T18:01:13.242Z,9.70
2022-08-18T18:03:40.083Z,8.32
2022-08-18T18:06:35.035Z,6.97
2022-08-18T18:09:09.035Z,8.93
2022-08-18T18:11:43.414Z,7.30
2022-08-18T18:14:33.167Z,8.32
2022-08-18T18:17:25.054Z,8.00
2022-08-18T18:20:16.002Z,11.70
2022-08-18T18:22:44.164Z,8.25
2022-08-18T18:25:12.730Z,8.50
2022-08-18T18:27:46.010Z,8.05
2022-08-18T18:30:27.793Z,8.52
2022-08-18T18:33:00.384Z,8.70
2022-08-18T18:35:29.266Z,8.15
2022-08-18T18:38:00.778Z,8.77
2022-08-18T18:40:54.751Z,10.55
2022-08-18T18:43:38.401Z,8.32
2022-08-18T18:49:01.373Z,9.40
2022-08-18T18:51:35.859Z,8.38
2022-08-18T18:54:34.476Z,8.70
2022-08-18T18:57:04.727Z,10.15
2022-08-18T18:59:43.386Z,11.73
2022-08-18T19:02:33.735Z,15.05
2022-08-18T19:05:27.526Z,11.90
2022-08-18T19:08:03.927Z,10.65
2022-08-18T19:10:33.166Z,11.02
2022-08-18T19:13:10.220Z,13.45
2022-08-18T19:15:39.578Z,13.38
2022-08-18T19:18:57.656Z,10.57
2022-08-18T19:22:04.308Z,17.13
2022-08-18T19:24:24.811Z,12.80
2022-08-18T19:26:56.749Z,13.15
2022-08-18T19:29:29.530Z,11.65
2022-08-18T19:32:06.185Z,13.00
2022-08-18T19:34:51.552Z,16.13
2022-08-18T19:37:42.437Z,10.70
2022-08-18T19:43:52.449Z,11.38
2022-08-18T19:46:45.980Z,9.40
2022-08-18T19:49:19.650Z,12.95
2022-08-18T19:51:54.183Z,11.77
2022-08-18T19:54:39.333Z,9.18
2022-08-18T19:57:42.002Z,9.43
2022-08-18T20:00:42.820Z,9.15
2022-08-18T20:03:29.902Z,9.65
2022-08-18T20:06:44.709Z,10.10
2022-08-18T20:09:55.967Z,10.90
2022-08-18T20:12:52.565Z,9.85
2022-08-18T20:15:25.258Z,10.75
2022-08-18T20:18:18.547Z,11.15
2022-08-18T20:21:19.585Z,10.35
2022-08-18T20:23:58.533Z,13.50
2022-08-18T20:26:40.129Z,12.55
2022-08-18T20:29:32.332Z,12.65
2022-08-18T20:32:05.681Z,14.40
2022-08-18T20:34:35.380Z,11.75
2022-08-18T20:37:09.635Z,13.38
2022-08-18T20:39:46.993Z,14.57
2022-08-18T20:42:34.896Z,16.55
2022-08-18T20:45:13.028Z,12.60
2022-08-18T20:48:14.453Z,12.77
2022-08-18T20:51:22.313Z,14.98
2022-08-18T20:54:03.717Z,12.35
2022-08-18T20:56:54.182Z,11.70
2022-08-18T20:59:25.973Z,12.77
2022-08-18T21:01:55.451Z,13.23
2022-08-18T21:04:56.907Z,13.27
2022-08-18T21:07:39.212Z,13.85
2022-08-18T21:10:22.953Z,13.98
2022-08-18T21:12:55.961Z,13.50
2022-08-18T21:15:29.036Z,14.23
2022-08-18T21:18:19.547Z,15.50
2022-08-18T21:20:51.427Z,14.55
2022-08-18T21:23:35.077Z,15.13
2022-08-18T21:26:30.145Z,15.77
2022-08-18T21:29:11.556Z,18.52
2022-08-18T21:34:34.530Z,14.55
2022-08-18T21:37:08.171Z,14.98
2022-08-18T21:40:02.325Z,15.15
2022-08-18T21:44:41.977Z,18.58
2022-08-18T21:47:23.809Z,16.90
2022-08-18T21:50:25.042Z,18.10
2022-08-18T21:56:02.522Z,17.65
2022-08-18T21:56:24.452Z,18.42
2022-08-18T21:58:42.617Z,15.98
2022-08-18T22:01:32.155Z,17.50
2022-08-18T22:04:27.593Z,15.48
2022-08-18T22:07:34.369Z,16.60
2022-08-18T22:10:25.670Z,14.90
2022-08-18T22:13:16.170Z,15.95
2022-08-18T22:16:11.205Z,18.67
2022-08-18T22:18:40.446Z,18.30
2022-08-18T22:21:36.258Z,15.27
2022-08-18T22:24:22.216Z,20.85
2022-08-18T22:27:07.428Z,16.02
2022-08-18T22:29:49.102Z,15.63
2022-08-18T22:35:13.497Z,15.65
2022-08-18T22:38:05.266Z,14.48
2022-08-18T22:40:40.664Z,14.82
2022-08-18T22:43:18.765Z,14.55
2022-08-18T22:45:45.653Z,13.80
2022-08-18T22:48:16.848Z,14.77
2022-08-18T22:50:46.526Z,14.27
2022-08-18T22:53:18.037Z,13.82
2022-08-18T22:55:49.064Z,14.53
2022-08-18T22:58:25.403Z,13.10
2022-08-18T23:01:05.314Z,13.90
2022-08-18T23:03:42.735Z,13.00
2022-08-18T23:06:10.601Z,13.07
2022-08-18T23:08:56.142Z,13.90
2022-08-18T23:11:24.679Z,19.70
2022-08-18T23:13:57.560Z,17.45
2022-08-18T23:19:27.896Z,15.43
2022-08-18T23:24:49.774Z,16.58
2022-08-18T23:27:16.941Z,17.17
2022-08-18T23:29:43.691Z,15.65
2022-08-18T23:32:10.389Z,17.42
2022-08-18T23:34:37.215Z,15.15
2022-08-18T23:37:05.303Z,16.67
2022-08-18T23:39:35.014Z,15.50
2022-08-18T23:45:47.509Z,14.00
2022-08-18T23:48:27.570Z,13.70
2022-08-18T23:51:05.717Z,15.05
2022-08-18T23:53:35.781Z,15.73
2022-08-18T23:56:22.996Z,16.00
2022-08-18T23:58:58.683Z,13.15
